Jefferson Hills, Pennsylvania
Current Conditions -  °F | °C
As of 5:00 PM on Monday 26 Jan 2015 (Local Time) from KAGC Reporting Station
Light Snow Light Snow  
Wind Chill: 15°   Ceiling: 2100
Heat Index: 25°   Visibility: 0.5mi
Dew Point: 21°   Wind: 10mph
Humidity: 85%   Direction: 340°NNW
Pressure: 29.72"   Gusts: NA
Location:  40.2958°N, 79.9241°W
Report Text: KAGC 262200Z 34009KT 1/2SM R28/5000VP6000FT -SN FZFG SCT012 BKN021 OVC026 M04/M06 A2972 RMK AO2 P0000 T10391061
Loading
Personal Weather Stations






























Interactive Weather Map New forecast layout! Learn more

10-Day Weather Forecast

Advertisements
Track Severe Weather on mobile